createdAt,value
2023-03-19T00:01:14.721Z,16.10
2023-03-19T00:03:43.298Z,13.50
2023-03-19T00:06:12.207Z,14.20
2023-03-19T00:08:40.542Z,14.50
2023-03-19T00:11:10.671Z,14.00
2023-03-19T00:13:39.263Z,15.20
2023-03-19T00:16:08.931Z,16.30
2023-03-19T00:18:37.536Z,14.70
2023-03-19T00:21:06.215Z,13.20
2023-03-19T00:23:34.693Z,13.60
2023-03-19T00:26:03.925Z,14.80
2023-03-19T00:28:33.046Z,13.60
2023-03-19T00:31:12.340Z,15.70
2023-03-19T00:33:41.079Z,14.20
2023-03-19T00:36:10.783Z,15.50
2023-03-19T00:38:40.466Z,13.30
2023-03-19T00:41:08.800Z,15.40
2023-03-19T00:43:38.555Z,15.50
2023-03-19T00:46:07.895Z,13.10
2023-03-19T00:48:37.503Z,12.40
2023-03-19T00:51:07.902Z,15.00
2023-03-19T00:53:42.340Z,12.40
2023-03-19T00:56:12.222Z,12.30
2023-03-19T00:58:42.293Z,12.50
2023-03-19T01:01:12.617Z,11.70
2023-03-19T01:03:40.982Z,11.70
2023-03-19T01:06:09.264Z,11.60
2023-03-19T01:08:38.888Z,11.50
2023-03-19T01:11:11.890Z,10.50
2023-03-19T01:13:42.254Z,10.30
2023-03-19T01:16:10.551Z,9.80
2023-03-19T01:18:38.752Z,10.40
2023-03-19T01:21:08.412Z,9.70
2023-03-19T01:23:42.098Z,10.20
2023-03-19T01:26:11.889Z,10.10
2023-03-19T01:28:39.782Z,8.60
2023-03-19T01:31:08.208Z,9.40
2023-03-19T01:33:53.094Z,9.60
2023-03-19T01:36:59.874Z,8.40
2023-03-19T01:39:33.923Z,9.40
2023-03-19T01:42:05.427Z,9.80
2023-03-19T01:44:56.819Z,8.90
2023-03-19T01:48:04.190Z,7.40
2023-03-19T01:50:46.344Z,7.80
2023-03-19T01:53:31.976Z,7.80
2023-03-19T01:56:17.241Z,7.70
2023-03-19T01:59:02.903Z,6.80
2023-03-19T02:01:59.550Z,6.40
2023-03-19T02:04:27.963Z,8.40
2023-03-19T02:06:56.460Z,7.40
2023-03-19T02:09:27.434Z,6.90
2023-03-19T02:11:56.003Z,7.60
2023-03-19T02:14:24.082Z,6.90
2023-03-19T02:16:54.865Z,7.10
2023-03-19T02:19:42.598Z,6.50
2023-03-19T02:22:12.146Z,6.80
2023-03-19T02:24:45.580Z,6.30
2023-03-19T02:27:16.814Z,6.30
2023-03-19T02:29:49.268Z,6.00
2023-03-19T02:32:17.916Z,7.30
2023-03-19T02:34:49.979Z,6.20
2023-03-19T02:37:24.676Z,7.20
2023-03-19T02:39:58.439Z,7.00
2023-03-19T02:42:27.798Z,5.90
2023-03-19T02:44:56.573Z,6.70
2023-03-19T02:47:25.473Z,5.70
2023-03-19T02:49:54.036Z,6.70
2023-03-19T02:52:22.353Z,6.20
2023-03-19T02:54:50.550Z,6.30
2023-03-19T02:57:19.550Z,6.00
2023-03-19T02:59:47.748Z,5.80
2023-03-19T03:02:15.908Z,5.90
2023-03-19T03:04:44.089Z,5.10
2023-03-19T03:07:14.325Z,5.60
2023-03-19T03:09:43.128Z,6.50
2023-03-19T03:12:12.297Z,5.30
2023-03-19T03:14:42.213Z,5.70
2023-03-19T03:17:10.906Z,6.10
2023-03-19T03:19:39.281Z,6.00
2023-03-19T03:22:08.179Z,5.20
2023-03-19T03:24:37.033Z,6.30
2023-03-19T03:27:09.549Z,6.10
2023-03-19T03:29:38.781Z,6.00
2023-03-19T03:32:08.249Z,7.00
2023-03-19T03:34:36.414Z,6.20
2023-03-19T03:37:04.683Z,6.90
2023-03-19T03:39:32.768Z,5.90
2023-03-19T03:42:01.450Z,6.20
2023-03-19T03:44:31.065Z,6.90
2023-03-19T03:47:04.898Z,6.90
2023-03-19T03:49:33.050Z,7.30
2023-03-19T03:52:01.403Z,6.40
2023-03-19T03:54:29.560Z,9.20
2023-03-19T03:56:58.183Z,9.70
2023-03-19T03:59:30.776Z,11.80
2023-03-19T04:01:58.897Z,10.60
2023-03-19T04:04:27.003Z,13.90
2023-03-19T04:06:55.639Z,11.20
2023-03-19T04:09:37.305Z,10.70
2023-03-19T04:12:06.120Z,11.30
2023-03-19T04:14:34.774Z,13.70
2023-03-19T04:17:03.317Z,17.70
2023-03-19T04:19:32.006Z,15.70
2023-03-19T04:22:03.707Z,14.30
2023-03-19T04:24:33.421Z,15.30
2023-03-19T04:27:01.566Z,16.80
2023-03-19T04:29:32.535Z,18.20
2023-03-19T04:32:01.754Z,18.10
2023-03-19T04:34:31.330Z,16.90
2023-03-19T04:37:00.477Z,21.80
2023-03-19T04:39:28.892Z,18.00
2023-03-19T04:42:00.829Z,18.30
2023-03-19T04:44:33.454Z,19.00
2023-03-19T04:47:02.688Z,22.00
2023-03-19T04:49:36.994Z,20.10
2023-03-19T04:52:06.255Z,19.70
2023-03-19T04:54:36.984Z,19.90
2023-03-19T04:57:05.734Z,21.40
2023-03-19T04:59:42.849Z,24.10
2023-03-19T05:02:12.887Z,25.60
2023-03-19T05:04:41.494Z,27.10
2023-03-19T05:07:12.076Z,27.10
2023-03-19T05:09:40.670Z,26.90
2023-03-19T05:12:13.952Z,29.50
2023-03-19T05:14:48.831Z,28.60
2023-03-19T05:17:30.046Z,26.40
2023-03-19T05:20:12.849Z,25.60
2023-03-19T05:22:46.966Z,25.00
2023-03-19T05:25:15.856Z,24.80
2023-03-19T05:27:47.938Z,21.30
2023-03-19T05:30:22.020Z,24.50
2023-03-19T05:33:05.852Z,25.80
2023-03-19T05:35:40.734Z,22.50
2023-03-19T05:38:14.618Z,26.80
2023-03-19T05:40:44.383Z,26.70
2023-03-19T05:43:22.447Z,24.90
2023-03-19T05:45:54.917Z,27.00
2023-03-19T05:50:54.980Z,28.40
2023-03-19T05:53:23.834Z,26.70
2023-03-19T05:56:12.187Z,24.90
2023-03-19T05:58:50.488Z,27.10
2023-03-19T06:01:21.290Z,24.70
2023-03-19T06:03:49.531Z,23.20
2023-03-19T06:06:17.823Z,21.80
2023-03-19T06:08:48.375Z,22.70
2023-03-19T06:11:29.774Z,22.60
2023-03-19T06:14:14.485Z,19.00
2023-03-19T06:16:43.900Z,18.50
2023-03-19T06:19:11.979Z,16.80
2023-03-19T06:21:42.498Z,17.00
2023-03-19T06:24:11.052Z,14.40
2023-03-19T06:26:42.009Z,13.50
2023-03-19T06:29:15.770Z,12.50
2023-03-19T06:31:48.991Z,7.10
2023-03-19T06:36:53.759Z,9.60
2023-03-19T06:39:24.623Z,11.10
2023-03-19T06:41:53.453Z,7.00
2023-03-19T06:44:25.526Z,22.20
2023-03-19T06:46:54.515Z,19.20
2023-03-19T06:49:23.102Z,20.40
2023-03-19T06:51:53.231Z,8.40
2023-03-19T06:54:21.562Z,6.20
2023-03-19T06:56:49.963Z,6.20
2023-03-19T06:59:19.100Z,7.10
2023-03-19T07:01:48.143Z,11.70
2023-03-19T07:04:16.256Z,7.60
2023-03-19T07:06:45.702Z,8.70
2023-03-19T07:09:14.432Z,7.20
2023-03-19T07:11:42.481Z,8.10
2023-03-19T07:14:12.945Z,24.70
2023-03-19T07:17:10.300Z,6.50
2023-03-19T07:19:45.460Z,7.20
2023-03-19T07:22:13.548Z,6.20
2023-03-19T07:24:41.694Z,7.80
2023-03-19T07:27:12.121Z,7.10
2023-03-19T07:29:40.725Z,5.30
2023-03-19T07:32:10.942Z,6.30
2023-03-19T07:34:44.407Z,6.50
2023-03-19T07:37:12.449Z,6.30
2023-03-19T07:39:40.472Z,6.60
2023-03-19T07:42:08.574Z,5.70
2023-03-19T07:44:38.470Z,6.70
2023-03-19T07:47:16.091Z,6.60
2023-03-19T07:49:54.750Z,6.10
2023-03-19T07:52:23.638Z,7.50
2023-03-19T07:54:53.993Z,6.20
2023-03-19T07:57:27.600Z,7.10
2023-03-19T07:59:59.976Z,6.70
2023-03-19T08:02:42.888Z,6.90
2023-03-19T08:05:12.296Z,7.80
2023-03-19T08:07:41.394Z,8.50
2023-03-19T08:10:10.773Z,7.40
2023-03-19T08:12:41.289Z,7.60
2023-03-19T08:15:15.993Z,7.70
2023-03-19T08:17:47.144Z,8.00
2023-03-19T08:20:16.817Z,9.30
2023-03-19T08:22:49.375Z,8.90
2023-03-19T08:25:17.976Z,7.50
2023-03-19T08:27:45.960Z,7.40
2023-03-19T08:30:14.491Z,7.30
2023-03-19T08:32:44.945Z,7.30
2023-03-19T08:35:14.350Z,6.80
2023-03-19T08:37:42.857Z,6.70
2023-03-19T08:40:11.608Z,7.70
2023-03-19T08:42:44.429Z,8.30
2023-03-19T08:45:14.220Z,7.30
2023-03-19T08:47:42.708Z,8.70
2023-03-19T08:50:16.099Z,8.90
2023-03-19T08:52:44.364Z,7.80
2023-03-19T08:55:12.906Z,5.90
2023-03-19T08:57:46.785Z,7.20
2023-03-19T09:00:17.970Z,6.40
2023-03-19T09:02:46.307Z,6.70
2023-03-19T09:05:15.330Z,7.10
2023-03-19T09:07:43.245Z,7.30
2023-03-19T09:10:13.657Z,7.00
2023-03-19T09:12:43.885Z,6.90
2023-03-19T09:15:11.885Z,7.70
2023-03-19T09:17:46.197Z,7.60
2023-03-19T09:20:19.087Z,5.60
2023-03-19T09:22:47.270Z,6.70
2023-03-19T09:25:16.115Z,7.80
2023-03-19T09:27:44.943Z,9.50
2023-03-19T09:30:14.190Z,7.80
2023-03-19T09:32:44.357Z,7.80
2023-03-19T09:35:12.462Z,7.60
2023-03-19T09:37:40.531Z,8.40
2023-03-19T09:40:17.402Z,10.00
2023-03-19T09:43:06.725Z,8.10
2023-03-19T09:45:34.944Z,8.10
2023-03-19T09:48:06.867Z,10.50
2023-03-19T09:50:36.583Z,9.20
2023-03-19T09:53:21.379Z,10.20
2023-03-19T09:55:54.210Z,9.20
2023-03-19T09:58:25.518Z,9.20
2023-03-19T10:00:54.051Z,8.80
2023-03-19T10:03:31.587Z,9.00
2023-03-19T10:06:14.422Z,8.50
2023-03-19T10:09:15.359Z,7.70
2023-03-19T10:12:26.762Z,9.60
2023-03-19T10:15:25.157Z,9.70
2023-03-19T10:18:05.578Z,9.90
2023-03-19T10:20:47.697Z,9.00
2023-03-19T10:23:15.844Z,8.50
2023-03-19T10:25:44.998Z,8.40
2023-03-19T10:28:16.321Z,8.90
2023-03-19T10:30:48.178Z,9.80
2023-03-19T10:33:24.057Z,10.50
2023-03-19T10:35:58.860Z,9.80
2023-03-19T10:38:27.261Z,8.90
2023-03-19T10:41:29.742Z,9.40
2023-03-19T10:44:03.298Z,7.50
2023-03-19T10:46:38.886Z,8.00
2023-03-19T10:49:13.623Z,7.50
2023-03-19T10:51:47.662Z,7.20
2023-03-19T10:54:25.356Z,7.30
2023-03-19T10:56:58.183Z,7.70
2023-03-19T10:59:34.368Z,8.90
2023-03-19T11:02:14.498Z,9.10
2023-03-19T11:04:42.626Z,8.10
2023-03-19T11:07:12.930Z,8.10
2023-03-19T11:09:49.511Z,8.20
2023-03-19T11:12:23.154Z,10.50
2023-03-19T11:14:56.405Z,8.30
2023-03-19T11:17:42.905Z,8.70
2023-03-19T11:20:11.604Z,9.20
2023-03-19T11:22:39.615Z,10.00
2023-03-19T11:25:27.221Z,8.40
2023-03-19T11:28:24.185Z,8.50
2023-03-19T11:31:12.629Z,8.00
2023-03-19T11:34:02.902Z,7.70
2023-03-19T11:36:58.981Z,7.60
2023-03-19T11:39:53.151Z,8.70
2023-03-19T11:42:30.788Z,7.70
2023-03-19T11:45:17.648Z,7.40
2023-03-19T11:47:56.384Z,8.00
2023-03-19T11:50:27.627Z,8.50
2023-03-19T11:53:22.634Z,9.50
2023-03-19T11:55:53.405Z,7.90
2023-03-19T11:58:41.601Z,8.50
2023-03-19T12:01:34.441Z,8.10
2023-03-19T12:04:26.610Z,7.50
2023-03-19T12:07:04.223Z,7.30
2023-03-19T12:09:49.694Z,7.90
2023-03-19T12:12:26.571Z,7.00
2023-03-19T12:15:02.036Z,8.50
2023-03-19T12:17:58.711Z,7.60
2023-03-19T12:20:51.702Z,7.70
2023-03-19T12:23:41.642Z,7.30
2023-03-19T12:26:30.844Z,6.70
2023-03-19T12:29:02.989Z,6.90
2023-03-19T12:31:55.019Z,7.10
2023-03-19T12:34:30.988Z,7.00
2023-03-19T12:37:21.462Z,8.00
2023-03-19T12:40:24.168Z,7.20
2023-03-19T12:42:52.287Z,7.40
2023-03-19T12:45:44.440Z,7.20
2023-03-19T12:48:19.279Z,6.60
2023-03-19T12:50:50.045Z,7.80
2023-03-19T12:53:32.088Z,8.20
2023-03-19T12:56:06.385Z,6.80
2023-03-19T12:58:37.977Z,7.20
2023-03-19T13:01:09.164Z,7.10
2023-03-19T13:03:45.815Z,7.50
2023-03-19T13:06:37.161Z,7.20
2023-03-19T13:09:29.220Z,7.20
2023-03-19T13:12:20.891Z,7.80
2023-03-19T13:14:58.902Z,7.20
2023-03-19T13:17:49.327Z,8.10
2023-03-19T13:20:19.324Z,6.70
2023-03-19T13:22:54.606Z,7.80
2023-03-19T13:25:34.260Z,7.80
2023-03-19T13:28:03.286Z,7.50
2023-03-19T13:30:32.313Z,6.90
2023-03-19T13:33:04.881Z,7.90
2023-03-19T13:38:15.615Z,8.40
2023-03-19T13:40:48.705Z,7.70
2023-03-19T13:43:28.342Z,8.30
2023-03-19T13:46:11.999Z,7.50
2023-03-19T13:48:47.770Z,8.00
2023-03-19T13:51:24.039Z,7.80
2023-03-19T13:54:08.362Z,9.20
2023-03-19T13:56:55.426Z,8.30
2023-03-19T13:59:27.223Z,8.60
2023-03-19T14:01:56.167Z,8.20
2023-03-19T14:04:34.362Z,7.60
2023-03-19T14:07:11.055Z,7.80
2023-03-19T14:09:46.416Z,7.80
2023-03-19T14:12:15.494Z,7.40
2023-03-19T14:14:58.666Z,7.20
2023-03-19T14:17:31.190Z,8.00
2023-03-19T14:20:37.619Z,8.10
2023-03-19T14:23:08.909Z,7.40
2023-03-19T14:25:57.046Z,7.80
2023-03-19T14:28:33.879Z,8.20
2023-03-19T14:31:02.799Z,8.10
2023-03-19T14:33:50.740Z,7.80
2023-03-19T14:36:21.836Z,6.30
2023-03-19T14:38:53.375Z,7.20
2023-03-19T14:41:22.361Z,8.30
2023-03-19T14:43:59.590Z,7.40
2023-03-19T14:46:55.536Z,7.90
2023-03-19T14:50:18.201Z,8.20
2023-03-19T14:53:32.356Z,7.30
2023-03-19T14:56:03.603Z,8.50
2023-03-19T14:58:31.635Z,7.80
2023-03-19T15:00:59.634Z,8.30
2023-03-19T15:03:31.599Z,8.00
2023-03-19T15:06:00.934Z,8.00
2023-03-19T15:08:30.766Z,7.90
2023-03-19T15:11:09.903Z,8.00
2023-03-19T15:14:00.102Z,7.10
2023-03-19T15:16:47.179Z,8.90
2023-03-19T15:19:15.554Z,7.30
2023-03-19T15:21:43.519Z,7.70
2023-03-19T15:24:15.111Z,7.70
2023-03-19T15:26:43.586Z,8.40
2023-03-19T15:29:18.924Z,11.10
2023-03-19T15:31:55.003Z,11.70
2023-03-19T15:34:30.356Z,10.70
2023-03-19T15:37:07.071Z,14.90
2023-03-19T15:39:45.570Z,16.20
2023-03-19T15:42:16.695Z,11.00
2023-03-19T15:44:47.645Z,10.70
2023-03-19T15:47:24.875Z,9.30
2023-03-19T15:50:06.798Z,9.90
2023-03-19T15:52:37.436Z,10.80
2023-03-19T15:55:09.203Z,10.80
2023-03-19T15:57:38.483Z,12.20
2023-03-19T16:00:16.188Z,11.00
2023-03-19T16:02:47.203Z,8.60
2023-03-19T16:05:28.947Z,7.10
2023-03-19T16:08:25.489Z,9.80
2023-03-19T16:10:53.740Z,8.10
2023-03-19T16:13:40.747Z,8.90
2023-03-19T16:16:17.937Z,9.30
2023-03-19T16:18:52.260Z,10.10
2023-03-19T16:21:36.254Z,11.00
2023-03-19T16:24:19.031Z,11.40
2023-03-19T16:26:47.287Z,10.90
2023-03-19T16:29:25.540Z,12.40
2023-03-19T16:31:58.213Z,9.70
2023-03-19T16:34:32.106Z,10.00
2023-03-19T16:37:01.126Z,9.50
2023-03-19T16:39:36.454Z,8.90
2023-03-19T16:42:32.554Z,9.70
2023-03-19T16:45:32.571Z,8.10
2023-03-19T16:48:05.419Z,6.80
2023-03-19T16:50:36.624Z,7.60
2023-03-19T16:53:11.920Z,7.70
2023-03-19T16:55:39.817Z,8.10
2023-03-19T16:58:18.425Z,7.70
2023-03-19T17:00:47.288Z,10.30
2023-03-19T17:03:17.690Z,7.20
2023-03-19T17:05:46.561Z,9.20
2023-03-19T17:08:17.103Z,7.40
2023-03-19T17:10:48.592Z,8.40
2023-03-19T17:13:19.451Z,7.90
2023-03-19T17:15:49.466Z,8.00
2023-03-19T17:18:23.776Z,8.00
2023-03-19T17:21:23.035Z,9.50
2023-03-19T17:23:51.648Z,8.70
2023-03-19T17:26:21.987Z,7.80
2023-03-19T17:28:53.648Z,6.90
2023-03-19T17:31:25.500Z,8.40
2023-03-19T17:34:01.065Z,7.70
2023-03-19T17:36:29.736Z,8.40
2023-03-19T17:38:57.969Z,8.00
2023-03-19T17:41:26.172Z,8.40
2023-03-19T17:43:54.255Z,7.30
2023-03-19T17:46:23.727Z,6.70
2023-03-19T17:48:55.928Z,7.70
2023-03-19T17:51:24.156Z,9.90
2023-03-19T17:53:54.633Z,7.80
2023-03-19T17:56:25.888Z,9.10
2023-03-19T17:58:54.176Z,8.60
2023-03-19T18:01:28.515Z,7.80
2023-03-19T18:03:57.701Z,9.60
2023-03-19T18:06:26.764Z,9.00
2023-03-19T18:08:55.377Z,8.70
2023-03-19T18:11:23.523Z,9.30
2023-03-19T18:13:52.511Z,9.20
2023-03-19T18:16:31.424Z,8.10
2023-03-19T18:19:01.179Z,10.90
2023-03-19T18:21:29.535Z,9.10
2023-03-19T18:24:01.482Z,7.90
2023-03-19T18:26:29.892Z,7.50
2023-03-19T18:28:58.362Z,7.00
2023-03-19T18:31:26.446Z,8.20
2023-03-19T18:33:56.808Z,8.50
2023-03-19T18:36:31.413Z,9.90
2023-03-19T18:39:00.340Z,10.50
2023-03-19T18:41:29.182Z,10.60
2023-03-19T18:44:07.174Z,10.90
2023-03-19T18:46:36.848Z,12.90
2023-03-19T18:49:23.617Z,13.40
2023-03-19T18:52:02.262Z,13.50
2023-03-19T18:54:32.170Z,15.20
2023-03-19T18:57:05.964Z,27.10
2023-03-19T18:59:37.207Z,29.20
2023-03-19T19:02:15.892Z,39.80
2023-03-19T19:07:15.406Z,41.00
2023-03-19T19:09:44.317Z,42.90
2023-03-19T19:12:13.643Z,41.50
2023-03-19T19:14:41.709Z,42.10
2023-03-19T19:17:17.197Z,38.30
2023-03-19T19:19:47.205Z,41.30
2023-03-19T19:22:16.554Z,38.40
2023-03-19T19:24:45.033Z,37.10
2023-03-19T19:27:22.370Z,38.20
2023-03-19T19:29:50.981Z,34.30
2023-03-19T19:33:56.292Z,36.10
2023-03-19T19:36:24.929Z,37.10
2023-03-19T19:38:53.257Z,38.20
2023-03-19T19:41:24.700Z,34.70
2023-03-19T19:43:56.213Z,38.90
2023-03-19T19:46:24.751Z,36.80
2023-03-19T19:48:52.666Z,36.00
2023-03-19T19:51:22.450Z,38.30
2023-03-19T19:53:50.895Z,37.70
2023-03-19T19:56:21.553Z,35.40
2023-03-19T19:58:51.238Z,35.70
2023-03-19T20:01:21.299Z,38.00
2023-03-19T20:03:52.067Z,36.10
2023-03-19T20:06:20.362Z,35.10
2023-03-19T20:08:49.455Z,35.00
2023-03-19T20:11:19.400Z,36.00
2023-03-19T20:13:51.420Z,35.70
2023-03-19T20:16:24.647Z,31.50
2023-03-19T20:18:54.889Z,33.80
2023-03-19T20:21:23.158Z,32.20
2023-03-19T20:23:55.572Z,35.20
2023-03-19T20:26:24.163Z,31.70
2023-03-19T20:28:54.591Z,33.30
2023-03-19T20:31:29.841Z,31.80
2023-03-19T20:33:58.056Z,29.80
2023-03-19T20:36:26.828Z,30.40
2023-03-19T20:38:54.872Z,30.60
2023-03-19T20:41:27.163Z,32.00
2023-03-19T20:43:55.950Z,30.20
2023-03-19T20:46:28.807Z,30.50
2023-03-19T20:48:57.535Z,30.10
2023-03-19T20:51:26.197Z,30.30
2023-03-19T20:53:58.833Z,28.00
2023-03-19T20:56:28.216Z,29.00
2023-03-19T20:59:01.248Z,31.20
2023-03-19T21:01:29.541Z,30.70
2023-03-19T21:03:57.571Z,29.10
2023-03-19T21:06:26.042Z,32.00
2023-03-19T21:08:58.690Z,28.60
2023-03-19T21:11:45.773Z,30.30
2023-03-19T21:14:15.990Z,30.00
2023-03-19T21:16:44.022Z,32.00
2023-03-19T21:19:14.063Z,33.20
2023-03-19T21:21:43.324Z,32.20
2023-03-19T21:24:13.499Z,33.00
2023-03-19T21:26:44.244Z,30.00
2023-03-19T21:29:21.599Z,34.10
2023-03-19T21:31:50.286Z,33.80
2023-03-19T21:34:18.369Z,33.30
2023-03-19T21:36:46.772Z,33.40
2023-03-19T21:39:14.801Z,33.20
2023-03-19T21:41:43.815Z,35.00
2023-03-19T21:44:14.265Z,36.00
2023-03-19T21:46:42.621Z,33.10
2023-03-19T21:49:13.916Z,35.40
2023-03-19T21:54:12.958Z,34.70
2023-03-19T21:56:45.577Z,38.30
2023-03-19T21:59:23.050Z,36.00
2023-03-19T22:01:51.476Z,37.00
2023-03-19T22:04:19.555Z,36.40
2023-03-19T22:06:49.349Z,39.10
2023-03-19T22:09:19.565Z,34.80
2023-03-19T22:11:47.765Z,35.90
2023-03-19T22:14:21.070Z,34.80
2023-03-19T22:16:53.276Z,33.50
2023-03-19T22:19:22.617Z,36.70
2023-03-19T22:21:50.679Z,33.60
2023-03-19T22:24:18.686Z,35.60
2023-03-19T22:26:47.697Z,33.10
2023-03-19T22:29:20.416Z,32.40
2023-03-19T22:31:50.492Z,35.10
2023-03-19T22:34:20.115Z,33.60
2023-03-19T22:36:50.235Z,32.60
2023-03-19T22:39:18.360Z,33.90
2023-03-19T22:41:47.991Z,35.80
2023-03-19T22:44:29.740Z,32.40
2023-03-19T22:46:58.796Z,33.60
2023-03-19T22:49:28.299Z,32.30
2023-03-19T22:51:56.694Z,31.80
2023-03-19T22:54:25.713Z,30.70
2023-03-19T22:56:53.996Z,33.20
2023-03-19T22:59:23.208Z,31.60
2023-03-19T23:01:51.662Z,30.70
2023-03-19T23:04:22.133Z,32.00
2023-03-19T23:06:52.271Z,29.20
2023-03-19T23:09:22.873Z,31.20
2023-03-19T23:11:51.641Z,30.50
2023-03-19T23:14:30.661Z,30.10
2023-03-19T23:17:03.410Z,31.30
2023-03-19T23:19:36.974Z,32.50
2023-03-19T23:22:06.207Z,29.90
2023-03-19T23:24:34.818Z,30.30
2023-03-19T23:27:04.364Z,30.90
2023-03-19T23:29:37.209Z,30.40
2023-03-19T23:32:05.971Z,30.90
2023-03-19T23:34:42.476Z,29.20
2023-03-19T23:37:14.092Z,32.30
2023-03-19T23:39:44.673Z,29.90
2023-03-19T23:42:17.929Z,30.80
2023-03-19T23:44:48.562Z,32.90
2023-03-19T23:47:16.915Z,30.30
2023-03-19T23:49:45.276Z,29.60
2023-03-19T23:52:13.695Z,28.10
2023-03-19T23:54:42.503Z,31.50
2023-03-19T23:57:16.968Z,29.70
2023-03-19T23:59:45.460Z,28.90
